createdAt,value
2019-05-02T00:02:14.404Z,20.87
2019-05-02T00:04:51.035Z,22.77
2019-05-02T00:07:21.765Z,22.93
2019-05-02T00:09:53.618Z,24.13
2019-05-02T00:12:25.480Z,22.43
2019-05-02T00:15:01.988Z,23.03
2019-05-02T00:17:34.045Z,24.80
2019-05-02T00:20:08.894Z,23.57
2019-05-02T00:22:41.085Z,23.77
2019-05-02T00:25:16.000Z,25.10
2019-05-02T00:27:48.612Z,25.77
2019-05-02T00:30:20.969Z,25.00
2019-05-02T00:32:53.241Z,24.30
2019-05-02T00:35:26.168Z,24.20
2019-05-02T00:38:02.463Z,24.80
2019-05-02T00:40:31.443Z,25.53
2019-05-02T00:43:04.273Z,25.73
2019-05-02T00:45:36.440Z,24.83
2019-05-02T00:48:13.130Z,25.70
2019-05-02T00:50:50.397Z,25.17
2019-05-02T00:53:18.892Z,24.43
2019-05-02T00:55:50.751Z,24.30
2019-05-02T00:58:22.566Z,24.47
2019-05-02T01:01:29.471Z,25.03
2019-05-02T01:04:01.707Z,24.00
2019-05-02T01:06:34.055Z,25.93
2019-05-02T01:09:11.161Z,24.87
2019-05-02T01:11:40.603Z,25.47
2019-05-02T01:14:12.789Z,25.05
2019-05-02T01:16:44.769Z,25.93
2019-05-02T01:19:17.278Z,24.77
2019-05-02T01:21:48.873Z,25.55
2019-05-02T01:24:20.428Z,24.98
2019-05-02T01:27:04.543Z,25.02
2019-05-02T01:29:43.138Z,25.80
2019-05-02T01:32:39.985Z,26.57
2019-05-02T01:35:20.929Z,25.60
2019-05-02T01:38:17.471Z,26.37
2019-05-02T01:40:53.361Z,27.30
2019-05-02T01:43:27.117Z,29.80
2019-05-02T01:45:59.090Z,27.53
2019-05-02T01:48:30.808Z,25.62
2019-05-02T01:51:04.468Z,27.70
2019-05-02T01:53:36.109Z,28.30
2019-05-02T01:56:07.592Z,27.80
2019-05-02T01:58:39.287Z,27.97
2019-05-02T02:01:10.838Z,29.17
2019-05-02T02:03:45.539Z,28.87
2019-05-02T02:06:16.712Z,27.83
2019-05-02T02:08:48.674Z,28.90
2019-05-02T02:11:20.263Z,28.23
2019-05-02T02:13:52.701Z,28.05
2019-05-02T02:16:24.585Z,28.23
2019-05-02T02:19:05.634Z,28.07
2019-05-02T02:21:47.028Z,28.17
2019-05-02T02:24:25.105Z,28.27
2019-05-02T02:26:58.190Z,27.77
2019-05-02T02:29:30.390Z,27.53
2019-05-02T02:32:02.155Z,28.03
2019-05-02T02:34:34.018Z,28.20
2019-05-02T02:37:12.489Z,27.67
2019-05-02T02:39:39.540Z,27.10
2019-05-02T02:42:11.556Z,28.47
2019-05-02T02:44:55.829Z,27.03
2019-05-02T02:47:28.745Z,26.07
2019-05-02T02:50:02.510Z,25.97
2019-05-02T02:52:37.782Z,26.53
2019-05-02T02:55:07.556Z,24.03
2019-05-02T02:57:39.712Z,23.97
2019-05-02T03:00:11.386Z,24.43
2019-05-02T03:02:48.506Z,22.87
2019-05-02T03:05:18.519Z,23.50
2019-05-02T03:07:51.124Z,21.62
2019-05-02T03:10:22.947Z,24.33
2019-05-02T03:13:28.854Z,23.33
2019-05-02T03:16:06.893Z,23.47
2019-05-02T03:18:40.734Z,23.50
2019-05-02T03:21:13.442Z,20.63
2019-05-02T03:23:42.293Z,23.77
2019-05-02T03:26:15.468Z,23.80
2019-05-02T03:28:57.099Z,22.73
2019-05-02T03:31:25.043Z,24.83
2019-05-02T03:34:00.239Z,26.20
2019-05-02T03:36:35.671Z,25.77
2019-05-02T03:39:13.395Z,26.47
2019-05-02T03:41:37.894Z,27.67
2019-05-02T03:44:11.879Z,28.93
2019-05-02T03:46:44.106Z,27.87
2019-05-02T03:49:16.069Z,27.40
2019-05-02T03:51:47.923Z,27.30
2019-05-02T03:54:20.310Z,27.00
2019-05-02T03:56:53.451Z,26.20
2019-05-02T03:59:37.263Z,26.77
2019-05-02T04:01:59.852Z,27.13
2019-05-02T04:04:31.193Z,27.10
2019-05-02T04:07:03.605Z,27.17
2019-05-02T04:09:41.856Z,26.80
2019-05-02T04:12:18.548Z,25.50
2019-05-02T04:14:45.709Z,23.25
2019-05-02T04:17:18.513Z,21.77
2019-05-02T04:19:50.510Z,22.00
2019-05-02T04:22:22.688Z,24.85
2019-05-02T04:24:56.797Z,22.80
2019-05-02T04:27:34.127Z,23.67
2019-05-02T04:30:10.859Z,24.17
2019-05-02T04:32:36.395Z,23.87
2019-05-02T04:35:07.656Z,26.17
2019-05-02T04:37:41.254Z,26.50
2019-05-02T04:40:13.533Z,24.43
2019-05-02T04:42:51.260Z,24.00
2019-05-02T04:45:26.449Z,23.18
2019-05-02T04:47:58.614Z,24.43
2019-05-02T04:50:25.637Z,22.87
2019-05-02T04:52:59.279Z,22.80
2019-05-02T04:55:33.366Z,20.17
2019-05-02T04:58:08.148Z,19.47
2019-05-02T05:00:44.782Z,19.03
2019-05-02T05:03:15.767Z,20.97
2019-05-02T05:05:47.791Z,19.10
2019-05-02T05:08:26.165Z,20.10
2019-05-02T05:10:51.770Z,17.30
2019-05-02T05:13:26.169Z,19.37
2019-05-02T05:15:57.403Z,19.83
2019-05-02T05:18:30.202Z,19.37
2019-05-02T05:21:02.143Z,20.27
2019-05-02T05:24:01.400Z,20.57
2019-05-02T05:26:38.399Z,20.07
2019-05-02T05:29:08.286Z,19.63
2019-05-02T05:31:40.918Z,20.03
2019-05-02T05:34:12.432Z,21.27
2019-05-02T05:36:43.902Z,20.70
2019-05-02T05:39:17.180Z,21.33
2019-05-02T05:41:52.251Z,19.98
2019-05-02T05:44:30.533Z,18.80
2019-05-02T05:47:00.306Z,19.33
2019-05-02T05:49:31.923Z,19.73
2019-05-02T05:52:04.090Z,20.67
2019-05-02T05:54:42.117Z,19.93
2019-05-02T05:57:19.210Z,20.83
2019-05-02T05:59:48.398Z,19.87
2019-05-02T06:02:19.860Z,20.57
2019-05-02T06:04:55.211Z,21.33
2019-05-02T06:07:24.754Z,20.90
2019-05-02T06:09:56.381Z,19.07
2019-05-02T06:12:30.385Z,20.03
2019-05-02T06:15:03.802Z,20.90
2019-05-02T06:17:34.832Z,20.27
2019-05-02T06:20:06.879Z,19.60
2019-05-02T06:22:38.335Z,20.77
2019-05-02T06:25:11.050Z,20.87
2019-05-02T06:27:42.740Z,22.93
2019-05-02T06:30:15.285Z,21.47
2019-05-02T06:32:50.001Z,20.73
2019-05-02T06:35:21.087Z,22.32
2019-05-02T06:37:52.602Z,22.07
2019-05-02T06:40:23.967Z,21.27
2019-05-02T06:42:55.645Z,22.00
2019-05-02T06:45:27.375Z,20.60
2019-05-02T06:48:01.187Z,21.37
2019-05-02T06:50:33.338Z,21.47
2019-05-02T06:53:09.655Z,22.30
2019-05-02T06:55:39.853Z,21.50
2019-05-02T06:58:12.513Z,21.65
2019-05-02T07:00:56.831Z,21.60
2019-05-02T07:03:17.491Z,22.90
2019-05-02T07:05:49.244Z,21.47
2019-05-02T07:08:21.934Z,21.45
2019-05-02T07:10:59.310Z,21.87
2019-05-02T07:13:26.917Z,23.70
2019-05-02T07:16:37.239Z,21.13
2019-05-02T07:18:57.301Z,22.73
2019-05-02T07:21:29.130Z,22.22
2019-05-02T07:24:00.982Z,21.75
2019-05-02T07:26:32.716Z,23.77
2019-05-02T07:29:04.499Z,21.80
2019-05-02T07:31:36.549Z,23.83
2019-05-02T07:34:12.921Z,23.03
2019-05-02T07:36:42.005Z,23.23
2019-05-02T07:39:13.697Z,23.87
2019-05-02T07:41:45.241Z,23.97
2019-05-02T07:44:17.192Z,23.10
2019-05-02T07:46:51.965Z,24.27
2019-05-02T07:49:21.657Z,22.77
2019-05-02T07:51:57.609Z,22.73
2019-05-02T07:54:26.814Z,24.00
2019-05-02T07:56:58.494Z,23.10
2019-05-02T07:59:30.281Z,21.80
2019-05-02T08:02:01.514Z,23.10
2019-05-02T08:04:32.828Z,23.97
2019-05-02T08:07:04.241Z,22.30
2019-05-02T08:09:39.322Z,22.07
2019-05-02T08:12:11.183Z,22.70
2019-05-02T08:14:42.946Z,21.52
2019-05-02T08:17:17.261Z,22.97
2019-05-02T08:19:48.461Z,23.10
2019-05-02T08:22:19.961Z,23.10
2019-05-02T08:24:52.085Z,23.73
2019-05-02T08:27:43.041Z,22.73
2019-05-02T08:30:21.012Z,22.57
2019-05-02T08:32:52.336Z,23.60
2019-05-02T08:35:24.088Z,23.60
2019-05-02T08:37:56.376Z,22.93
2019-05-02T08:40:27.701Z,22.87
2019-05-02T08:43:03.417Z,25.30
2019-05-02T08:45:37.724Z,24.60
2019-05-02T08:48:06.558Z,24.90
2019-05-02T08:50:37.978Z,25.33
2019-05-02T08:53:14.259Z,26.13
2019-05-02T08:55:45.347Z,26.60
2019-05-02T08:58:17.067Z,27.27
2019-05-02T09:00:48.829Z,28.10
2019-05-02T09:03:20.694Z,28.60
2019-05-02T09:06:04.934Z,28.60
2019-05-02T09:08:25.816Z,28.35
2019-05-02T09:10:57.608Z,29.03
2019-05-02T09:13:29.688Z,30.25
2019-05-02T09:16:05.675Z,27.27
2019-05-02T09:18:38.254Z,29.30
2019-05-02T09:21:07.806Z,29.87
2019-05-02T09:23:41.976Z,29.73
2019-05-02T09:26:13.356Z,28.57
2019-05-02T09:28:45.228Z,28.90
2019-05-02T09:31:16.445Z,28.30
2019-05-02T09:33:48.127Z,28.20
2019-05-02T09:36:20.031Z,28.33
2019-05-02T09:38:55.897Z,27.90
2019-05-02T09:41:26.963Z,28.12
2019-05-02T09:43:59.118Z,26.87
2019-05-02T09:46:32.495Z,28.17
2019-05-02T09:49:10.668Z,28.50
2019-05-02T09:51:36.979Z,28.07
2019-05-02T09:54:09.580Z,28.30
2019-05-02T09:56:42.975Z,27.20
2019-05-02T09:59:26.642Z,27.87
2019-05-02T10:01:49.949Z,28.05
2019-05-02T10:04:22.499Z,27.35
2019-05-02T10:06:53.856Z,27.63
2019-05-02T10:09:27.314Z,27.70
2019-05-02T10:12:01.877Z,28.20
2019-05-02T10:14:33.151Z,25.67
2019-05-02T10:17:07.079Z,25.77
2019-05-02T10:19:41.175Z,27.73
2019-05-02T10:22:12.267Z,27.33
2019-05-02T10:24:44.168Z,27.30
2019-05-02T10:27:17.216Z,28.60
2019-05-02T10:29:49.110Z,27.97
2019-05-02T10:32:22.671Z,28.90
2019-05-02T10:34:56.790Z,26.13
2019-05-02T10:37:32.371Z,28.37
2019-05-02T10:40:02.995Z,27.60
2019-05-02T10:42:35.758Z,24.30
2019-05-02T10:45:12.977Z,28.07
2019-05-02T10:47:42.398Z,27.47
2019-05-02T10:50:22.267Z,25.73
2019-05-02T10:52:53.530Z,26.42
2019-05-02T10:55:25.336Z,27.27
2019-05-02T10:57:57.149Z,26.60
2019-05-02T11:00:33.237Z,27.50
2019-05-02T11:03:19.331Z,27.60
2019-05-02T11:05:57.860Z,25.77
2019-05-02T11:08:28.496Z,26.90
2019-05-02T11:11:02.390Z,24.27
2019-05-02T11:14:00.747Z,27.73
2019-05-02T11:16:43.807Z,26.60
2019-05-02T11:19:31.861Z,26.17
2019-05-02T11:22:03.475Z,25.70
2019-05-02T11:24:35.388Z,26.03
2019-05-02T11:27:08.267Z,27.83
2019-05-02T11:29:39.875Z,25.90
2019-05-02T11:32:12.806Z,27.57
2019-05-02T11:34:44.718Z,25.47
2019-05-02T11:37:16.258Z,26.37
2019-05-02T11:39:52.679Z,26.02
2019-05-02T11:42:25.661Z,25.23
2019-05-02T11:44:55.242Z,25.40
2019-05-02T11:47:26.895Z,25.33
2019-05-02T11:49:58.569Z,25.35
2019-05-02T11:52:32.953Z,25.90
2019-05-02T11:55:03.608Z,25.82
2019-05-02T11:57:35.176Z,25.47
2019-05-02T12:00:08.975Z,26.00
2019-05-02T12:02:59.667Z,27.43
2019-05-02T12:05:43.432Z,25.97
2019-05-02T12:08:15.107Z,26.50
2019-05-02T12:10:46.529Z,25.53
2019-05-02T12:13:18.705Z,27.52
2019-05-02T12:15:51.910Z,26.10
2019-05-02T12:18:23.494Z,25.97
2019-05-02T12:20:55.385Z,27.58
2019-05-02T12:23:27.633Z,28.27
2019-05-02T12:25:59.515Z,27.93
2019-05-02T12:28:32.346Z,28.00
2019-05-02T12:31:08.063Z,28.17
2019-05-02T12:33:42.678Z,28.63
2019-05-02T12:36:14.413Z,25.23
2019-05-02T12:38:46.187Z,27.80
2019-05-02T12:41:22.245Z,26.17
2019-05-02T12:43:52.470Z,26.57
2019-05-02T12:46:24.103Z,25.87
2019-05-02T12:48:55.495Z,24.90
2019-05-02T12:51:27.061Z,25.50
2019-05-02T12:53:58.665Z,26.53
2019-05-02T12:56:29.672Z,27.90
2019-05-02T12:59:02.369Z,26.13
2019-05-02T13:01:34.458Z,27.10
2019-05-02T13:04:12.421Z,25.23
2019-05-02T13:06:43.877Z,26.93
2019-05-02T13:09:14.967Z,24.80
2019-05-02T13:12:06.258Z,26.20
2019-05-02T13:14:38.199Z,24.97
2019-05-02T13:17:09.441Z,26.03
2019-05-02T13:19:55.391Z,25.90
2019-05-02T13:22:32.774Z,25.23
2019-05-02T13:25:10.495Z,25.63
2019-05-02T13:27:47.134Z,24.47
2019-05-02T13:30:24.391Z,25.03
2019-05-02T13:32:59.458Z,24.73
2019-05-02T13:35:37.813Z,24.63
2019-05-02T13:38:09.921Z,24.93
2019-05-02T13:40:45.351Z,24.70
2019-05-02T13:43:16.912Z,24.57
2019-05-02T13:46:08.052Z,23.23
2019-05-02T13:48:40.317Z,24.92
2019-05-02T13:51:12.030Z,24.40
2019-05-02T13:53:56.947Z,24.67
2019-05-02T13:56:47.609Z,24.50
2019-05-02T13:59:22.367Z,25.77
2019-05-02T14:01:55.014Z,24.63
2019-05-02T14:04:26.939Z,25.03
2019-05-02T14:06:59.456Z,24.13
2019-05-02T14:09:53.049Z,25.17
2019-05-02T14:12:54.389Z,25.77
2019-05-02T14:15:29.870Z,25.93
2019-05-02T14:18:02.494Z,25.87
2019-05-02T14:20:37.247Z,25.97
2019-05-02T14:23:07.744Z,25.47
2019-05-02T14:25:39.399Z,25.37
2019-05-02T14:28:12.964Z,26.23
2019-05-02T14:30:46.301Z,25.27
2019-05-02T14:33:23.248Z,26.23
2019-05-02T14:35:55.046Z,26.43
2019-05-02T14:38:27.036Z,27.13
2019-05-02T14:41:06.635Z,28.10
2019-05-02T14:43:56.919Z,26.10
2019-05-02T14:46:35.359Z,26.33
2019-05-02T14:49:02.706Z,25.40
2019-05-02T14:51:36.608Z,28.53
2019-05-02T14:54:08.570Z,28.23
2019-05-02T14:56:52.277Z,25.70
2019-05-02T14:59:24.158Z,25.60
2019-05-02T15:02:05.802Z,27.02
2019-05-02T15:04:32.215Z,26.20
2019-05-02T15:07:04.580Z,25.37
2019-05-02T15:09:37.918Z,24.90
2019-05-02T15:12:15.924Z,25.50
2019-05-02T15:14:43.232Z,27.93
2019-05-02T15:17:14.867Z,27.63
2019-05-02T15:19:46.829Z,27.20
2019-05-02T15:22:18.720Z,28.63
2019-05-02T15:24:50.200Z,28.40
2019-05-02T15:27:22.274Z,30.25
2019-05-02T15:30:00.887Z,31.87
2019-05-02T15:32:46.410Z,31.47
2019-05-02T15:35:38.553Z,32.57
2019-05-02T15:38:14.388Z,34.40
2019-05-02T15:40:49.876Z,32.90
2019-05-02T15:43:16.853Z,33.13
2019-05-02T15:45:49.086Z,33.00
2019-05-02T15:48:27.075Z,33.83
2019-05-02T15:50:55.584Z,31.53
2019-05-02T15:53:33.333Z,34.87
2019-05-02T15:56:04.682Z,35.38
2019-05-02T15:58:36.335Z,34.60
2019-05-02T16:01:17.950Z,34.07
2019-05-02T16:03:52.269Z,36.10
2019-05-02T16:06:30.566Z,35.83
2019-05-02T16:08:56.972Z,34.93
2019-05-02T16:11:28.633Z,35.37
2019-05-02T16:14:02.222Z,35.45
2019-05-02T16:16:36.646Z,35.47
2019-05-02T16:19:07.392Z,35.13
2019-05-02T16:21:44.411Z,35.60
2019-05-02T16:24:23.314Z,35.07
2019-05-02T16:26:57.181Z,34.70
2019-05-02T16:29:29.232Z,34.67
2019-05-02T16:32:21.842Z,35.87
2019-05-02T16:35:16.996Z,36.03
2019-05-02T16:37:54.431Z,35.60
2019-05-02T16:40:29.608Z,34.33
2019-05-02T16:42:57.617Z,35.37
2019-05-02T16:45:28.908Z,35.98
2019-05-02T16:48:03.278Z,35.73
2019-05-02T16:50:36.884Z,35.67
2019-05-02T16:53:08.345Z,34.33
2019-05-02T16:55:43.425Z,36.10
2019-05-02T16:58:13.794Z,36.77
2019-05-02T17:00:45.673Z,38.23
2019-05-02T17:03:24.733Z,37.37
2019-05-02T17:05:54.429Z,37.17
2019-05-02T17:08:38.535Z,36.53
2019-05-02T17:11:15.801Z,37.07
2019-05-02T17:13:47.474Z,38.07
2019-05-02T17:16:19.539Z,38.53
2019-05-02T17:18:55.046Z,38.83
2019-05-02T17:21:33.693Z,38.90
2019-05-02T17:24:02.580Z,39.30
2019-05-02T17:26:34.468Z,38.83
2019-05-02T17:29:05.853Z,38.30
2019-05-02T17:31:37.992Z,39.95
2019-05-02T17:34:11.915Z,39.80
2019-05-02T17:36:45.638Z,36.87
2019-05-02T17:39:18.757Z,36.80
2019-05-02T17:41:50.080Z,37.67
2019-05-02T17:44:24.475Z,36.83
2019-05-02T17:46:58.243Z,38.10
2019-05-02T17:49:34.900Z,36.27
2019-05-02T17:52:26.170Z,34.63
2019-05-02T17:54:57.370Z,33.97
2019-05-02T17:57:28.579Z,35.10
2019-05-02T18:00:02.704Z,31.57
2019-05-02T18:02:34.599Z,33.73
2019-05-02T18:05:06.345Z,31.13
2019-05-02T18:07:38.219Z,30.90
2019-05-02T18:10:16.679Z,29.20
2019-05-02T18:12:47.697Z,30.60
2019-05-02T18:15:18.803Z,29.70
2019-05-02T18:17:52.384Z,28.17
2019-05-02T18:20:25.403Z,28.87
2019-05-02T18:22:57.740Z,27.20
2019-05-02T18:25:29.484Z,29.40
2019-05-02T18:28:02.404Z,30.27
2019-05-02T18:30:34.770Z,29.60
2019-05-02T18:33:07.346Z,28.60
2019-05-02T18:35:45.246Z,27.60
2019-05-02T18:38:15.878Z,27.93
2019-05-02T18:40:45.215Z,27.80
2019-05-02T18:43:17.057Z,29.37
2019-05-02T18:45:48.263Z,28.00
2019-05-02T18:48:21.847Z,29.53
2019-05-02T18:50:53.437Z,27.57
2019-05-02T18:53:27.310Z,25.93
2019-05-02T18:56:01.607Z,26.70
2019-05-02T18:58:36.252Z,27.27
2019-05-02T19:01:08.394Z,25.27
2019-05-02T19:03:39.036Z,26.27
2019-05-02T19:06:11.697Z,26.45
2019-05-02T19:08:49.648Z,26.97
2019-05-02T19:11:18.768Z,25.73
2019-05-02T19:13:52.502Z,26.00
2019-05-02T19:16:27.249Z,27.57
2019-05-02T19:18:57.520Z,26.97
2019-05-02T19:21:32.072Z,26.70
2019-05-02T19:24:03.333Z,27.10
2019-05-02T19:26:35.164Z,27.47
2019-05-02T19:29:17.170Z,27.75
2019-05-02T19:31:52.296Z,28.53
2019-05-02T19:34:26.730Z,28.63
2019-05-02T19:36:57.912Z,30.57
2019-05-02T19:39:32.276Z,28.97
2019-05-02T19:42:04.112Z,27.90
2019-05-02T19:44:35.459Z,29.47
2019-05-02T19:47:08.466Z,29.20
2019-05-02T19:49:42.550Z,30.73
2019-05-02T19:52:14.048Z,29.80
2019-05-02T19:54:45.675Z,25.97
2019-05-02T19:57:24.798Z,28.40
2019-05-02T19:59:52.553Z,26.83
2019-05-02T20:02:24.202Z,26.17
2019-05-02T20:04:55.797Z,24.67
2019-05-02T20:07:27.959Z,25.03
2019-05-02T20:10:01.806Z,24.67
2019-05-02T20:12:32.846Z,25.55
2019-05-02T20:15:04.733Z,28.03
2019-05-02T20:17:36.855Z,28.73
2019-05-02T20:20:12.655Z,30.90
2019-05-02T20:22:44.638Z,26.10
2019-05-02T20:25:16.693Z,19.93
2019-05-02T20:27:48.676Z,16.10
2019-05-02T20:30:22.491Z,11.43
2019-05-02T20:32:54.212Z,7.97
2019-05-02T20:35:27.435Z,6.93
2019-05-02T20:37:58.875Z,7.83
2019-05-02T20:40:31.887Z,6.70
2019-05-02T20:43:04.045Z,7.80
2019-05-02T20:45:35.483Z,8.30
2019-05-02T20:48:06.924Z,8.07
2019-05-02T20:50:38.966Z,7.50
2019-05-02T20:53:12.739Z,7.20
2019-05-02T20:55:43.851Z,7.40
2019-05-02T20:58:15.536Z,7.13
2019-05-02T21:00:47.247Z,7.40
2019-05-02T21:03:19.022Z,7.83
2019-05-02T21:06:03.004Z,6.83
2019-05-02T21:08:45.883Z,6.50
2019-05-02T21:11:18.029Z,6.97
2019-05-02T21:13:49.406Z,6.47
2019-05-02T21:16:21.809Z,5.77
2019-05-02T21:18:53.597Z,6.10
2019-05-02T21:21:26.378Z,5.07
2019-05-02T21:23:58.906Z,4.80
2019-05-02T21:26:32.905Z,4.90
2019-05-02T21:29:04.139Z,4.45
2019-05-02T21:31:36.353Z,4.07
2019-05-02T21:34:08.339Z,4.05
2019-05-02T21:36:42.385Z,4.37
2019-05-02T21:39:13.311Z,3.93
2019-05-02T21:41:45.558Z,3.98
2019-05-02T21:44:17.441Z,3.37
2019-05-02T21:46:49.167Z,2.40
2019-05-02T21:49:44.986Z,2.67
2019-05-02T21:52:27.926Z,2.40
2019-05-02T21:55:12.347Z,2.27
2019-05-02T21:57:44.323Z,2.43
2019-05-02T22:00:29.261Z,2.43
2019-05-02T22:03:02.127Z,2.43
2019-05-02T22:05:34.113Z,1.93
2019-05-02T22:08:05.602Z,2.30
2019-05-02T22:10:37.978Z,1.97
2019-05-02T22:13:10.024Z,2.03
2019-05-02T22:15:42.030Z,2.60
2019-05-02T22:18:13.738Z,1.97
2019-05-02T22:20:47.239Z,1.93
2019-05-02T22:23:19.100Z,2.37
2019-05-02T22:25:50.283Z,2.20
2019-05-02T22:28:22.233Z,2.87
2019-05-02T22:30:54.587Z,2.20
2019-05-02T22:33:26.338Z,3.00
2019-05-02T22:35:57.902Z,2.67
2019-05-02T22:38:49.103Z,2.62
2019-05-02T22:41:22.136Z,2.40
2019-05-02T22:43:53.784Z,2.10
2019-05-02T22:46:45.599Z,2.43
2019-05-02T22:49:17.349Z,2.30
2019-05-02T22:51:49.162Z,1.97
2019-05-02T22:54:27.737Z,2.27
2019-05-02T22:56:54.465Z,3.13
2019-05-02T22:59:26.428Z,2.40
2019-05-02T23:01:58.685Z,2.33
2019-05-02T23:04:32.582Z,3.00
2019-05-02T23:07:04.147Z,2.43
2019-05-02T23:09:36.069Z,3.00
2019-05-02T23:12:08.254Z,3.03
2019-05-02T23:14:41.838Z,2.65
2019-05-02T23:17:13.820Z,3.02
2019-05-02T23:19:46.039Z,2.63
2019-05-02T23:22:17.348Z,2.43
2019-05-02T23:25:11.653Z,3.77
2019-05-02T23:27:47.562Z,2.52
2019-05-02T23:30:22.577Z,3.30
2019-05-02T23:32:54.162Z,2.90
2019-05-02T23:35:26.060Z,3.27
2019-05-02T23:37:57.968Z,3.90
2019-05-02T23:40:30.130Z,3.03
2019-05-02T23:43:02.002Z,3.95
2019-05-02T23:45:33.502Z,4.40
2019-05-02T23:48:05.162Z,4.20
2019-05-02T23:50:37.184Z,4.67
2019-05-02T23:53:08.925Z,3.27
2019-05-02T23:55:40.250Z,4.77
2019-05-02T23:58:11.985Z,4.57
